createdAt,value
2022-09-21T04:00:31.264Z,3.15
2022-09-21T04:04:33.741Z,3.10
2022-09-21T04:08:36.375Z,3.35
2022-09-21T04:12:38.859Z,4.33
2022-09-21T04:16:42.721Z,3.40
2022-09-21T04:20:45.214Z,3.08
2022-09-21T04:24:47.691Z,4.60
2022-09-21T04:28:50.709Z,3.47
2022-09-21T04:32:54.509Z,3.80
2022-09-21T04:36:56.995Z,3.85
2022-09-21T04:41:00.222Z,3.58
2022-09-21T04:45:02.690Z,4.93
2022-09-21T04:49:06.501Z,4.03
2022-09-21T04:53:09.294Z,3.55
2022-09-21T04:57:11.754Z,2.90
2022-09-21T05:01:14.299Z,3.22
2022-09-21T05:05:18.145Z,3.85
2022-09-21T05:09:40.529Z,3.33
2022-09-21T05:13:43.645Z,3.40
2022-09-21T05:17:46.645Z,3.35
2022-09-21T05:21:50.429Z,3.30
2022-09-21T05:25:52.914Z,2.92
2022-09-21T05:29:55.854Z,3.05
2022-09-21T05:34:04.065Z,2.38
2022-09-21T05:38:13.955Z,2.75
2022-09-21T05:42:16.890Z,2.95
2022-09-21T05:46:21.783Z,3.45
2022-09-21T05:50:41.937Z,3.50
2022-09-21T05:54:57.685Z,4.00
2022-09-21T05:59:10.156Z,3.60
2022-09-21T06:03:28.021Z,3.50
2022-09-21T06:07:30.498Z,3.72
2022-09-21T06:11:34.691Z,4.55
2022-09-21T06:15:38.470Z,4.88
2022-09-21T06:19:40.987Z,3.72
2022-09-21T06:23:43.464Z,4.28
2022-09-21T06:27:47.263Z,4.25
2022-09-21T06:31:49.903Z,4.85
2022-09-21T06:35:53.850Z,4.43
2022-09-21T06:39:56.331Z,4.47
2022-09-21T06:44:00.157Z,5.18
2022-09-21T06:48:03.105Z,4.32
2022-09-21T06:52:05.730Z,3.55
2022-09-21T06:56:10.749Z,3.87
2022-09-21T07:00:15.569Z,3.70
2022-09-21T07:04:21.943Z,4.00
2022-09-21T07:12:52.209Z,3.65
2022-09-21T07:16:56.017Z,2.90
2022-09-21T07:20:58.493Z,2.78
2022-09-21T07:25:01.588Z,2.63
2022-09-21T07:29:04.114Z,2.38
2022-09-21T07:33:08.714Z,2.47
2022-09-21T07:37:11.639Z,2.75
2022-09-21T07:41:15.182Z,3.78
2022-09-21T07:49:21.424Z,2.60
2022-09-21T07:53:23.919Z,2.78
2022-09-21T07:57:44.068Z,3.88
2022-09-21T08:01:46.640Z,2.70
2022-09-21T08:05:51.078Z,2.87
2022-09-21T08:09:53.551Z,2.90
2022-09-21T08:13:58.273Z,2.75
2022-09-21T08:18:01.231Z,2.80
2022-09-21T08:22:05.195Z,2.60
2022-09-21T08:26:08.917Z,2.80
2022-09-21T08:30:13.635Z,2.80
2022-09-21T08:34:16.127Z,3.50
2022-09-21T08:38:20.305Z,3.28
2022-09-21T08:42:41.446Z,3.08
2022-09-21T08:46:46.728Z,3.20
2022-09-21T08:50:53.574Z,3.13
2022-09-21T08:55:01.151Z,3.25
2022-09-21T08:59:03.723Z,3.53
2022-09-21T09:03:20.582Z,3.23
2022-09-21T09:07:38.787Z,3.80
2022-09-21T09:12:11.061Z,3.60
2022-09-21T09:16:23.160Z,3.67
2022-09-21T09:20:31.847Z,4.75
2022-09-21T09:24:39.870Z,4.65
2022-09-21T09:28:53.080Z,3.95
2022-09-21T09:33:01.278Z,4.28
2022-09-21T09:37:13.162Z,4.32
2022-09-21T09:41:29.990Z,4.10
2022-09-21T09:45:50.459Z,4.03
2022-09-21T09:50:05.435Z,4.05
2022-09-21T09:54:14.939Z,3.92
2022-09-21T09:58:20.344Z,4.18
2022-09-21T10:02:26.443Z,4.00
2022-09-21T10:06:33.019Z,3.97
2022-09-21T10:10:37.793Z,4.65
2022-09-21T10:14:40.367Z,4.60
2022-09-21T10:18:49.417Z,4.20
2022-09-21T10:22:57.022Z,4.55
2022-09-21T10:27:06.261Z,4.40
2022-09-21T10:31:18.834Z,4.10
2022-09-21T10:35:22.883Z,3.73
2022-09-21T10:39:28.963Z,3.78
2022-09-21T10:43:39.840Z,3.50
2022-09-21T10:47:48.324Z,3.85
2022-09-21T10:51:54.276Z,4.30
2022-09-21T10:56:17.932Z,3.95
2022-09-21T11:04:44.142Z,3.75
2022-09-21T11:08:54.469Z,3.75
2022-09-21T11:13:07.705Z,3.47
2022-09-21T11:17:18.423Z,3.35
2022-09-21T11:21:31.429Z,4.00
2022-09-21T11:25:43.504Z,3.28
2022-09-21T11:29:56.267Z,3.00
2022-09-21T11:34:16.468Z,2.73
2022-09-21T11:38:33.713Z,2.17
2022-09-21T11:42:49.301Z,2.38
2022-09-21T11:47:04.698Z,2.00
2022-09-21T11:51:20.795Z,1.92
2022-09-21T11:56:05.280Z,1.50
2022-09-21T12:00:17.173Z,2.08
2022-09-21T12:04:43.199Z,1.73
2022-09-21T12:08:58.103Z,1.98
2022-09-21T12:13:07.402Z,1.80
2022-09-21T12:17:18.243Z,1.92
2022-09-21T12:21:23.946Z,1.60
2022-09-21T12:25:30.993Z,1.90
2022-09-21T12:29:39.006Z,1.27
2022-09-21T12:33:47.897Z,1.70
2022-09-21T12:37:55.638Z,1.60
2022-09-21T12:42:03.479Z,1.15
2022-09-21T12:46:12.754Z,1.30
2022-09-21T12:50:22.709Z,1.77
2022-09-21T12:54:33.054Z,1.60
2022-09-21T12:58:50.652Z,1.20
2022-09-21T13:02:58.158Z,1.33
2022-09-21T13:07:37.321Z,1.20
2022-09-21T13:11:52.484Z,1.38
2022-09-21T13:15:55.650Z,1.38
2022-09-21T13:20:02.010Z,1.35
2022-09-21T13:24:08.600Z,1.38
2022-09-21T13:28:24.078Z,1.10
2022-09-21T13:32:54.650Z,1.23
2022-09-21T13:37:28.111Z,1.02
2022-09-21T13:41:51.699Z,0.90
2022-09-21T13:45:59.397Z,1.27
2022-09-21T13:50:13.262Z,1.23
2022-09-21T13:54:15.932Z,1.40
2022-09-21T13:58:23.652Z,1.27
2022-09-21T14:02:33.025Z,1.13
2022-09-21T14:06:44.717Z,1.23
2022-09-21T14:10:52.885Z,1.05
2022-09-21T14:15:12.737Z,1.17
2022-09-21T14:20:05.399Z,1.20
2022-09-21T14:24:22.937Z,1.45
2022-09-21T14:28:35.415Z,1.02
2022-09-21T14:32:47.226Z,1.17
2022-09-21T14:36:53.019Z,1.20
2022-09-21T14:41:00.697Z,1.40
2022-09-21T14:45:04.107Z,1.13
2022-09-21T14:49:19.660Z,1.10
2022-09-21T14:53:55.787Z,1.15
2022-09-21T14:58:19.350Z,0.88
2022-09-21T15:06:49.546Z,0.85
2022-09-21T15:11:00.984Z,1.17
2022-09-21T15:15:20.253Z,0.77
2022-09-21T15:19:25.543Z,0.90
2022-09-21T15:23:29.691Z,1.05
2022-09-21T15:27:33.955Z,1.20
2022-09-21T15:31:40.079Z,0.80
2022-09-21T15:35:47.575Z,0.93
2022-09-21T15:40:00.881Z,0.88
2022-09-21T15:48:13.159Z,1.20
2022-09-21T15:52:24.112Z,1.08
2022-09-21T15:56:28.628Z,1.00
2022-09-21T16:00:39.878Z,1.00
2022-09-21T16:04:49.233Z,0.82
2022-09-21T16:08:52.591Z,1.25
2022-09-21T16:13:02.038Z,0.88
2022-09-21T16:17:21.822Z,1.13
2022-09-21T16:21:28.159Z,1.00
2022-09-21T16:25:37.074Z,0.85
2022-09-21T16:29:42.941Z,1.15
2022-09-21T16:34:02.273Z,0.77
2022-09-21T16:38:09.951Z,1.20
2022-09-21T16:42:13.562Z,2.20
2022-09-21T16:46:16.078Z,1.77
2022-09-21T16:50:18.898Z,1.50
2022-09-21T16:54:24.454Z,0.80
2022-09-21T16:58:27.241Z,1.08
2022-09-21T17:02:31.218Z,1.15
2022-09-21T17:06:36.711Z,0.90
2022-09-21T17:10:44.849Z,1.10
2022-09-21T17:14:47.701Z,1.23
2022-09-21T17:18:50.619Z,1.10
2022-09-21T17:22:53.262Z,1.00
2022-09-21T17:26:57.099Z,1.70
2022-09-21T17:31:00.692Z,1.90
2022-09-21T17:35:15.763Z,2.30
2022-09-21T17:39:19.483Z,3.95
2022-09-21T17:43:38.181Z,5.35
2022-09-21T17:47:41.930Z,2.95
2022-09-21T17:52:02.544Z,3.97
2022-09-21T17:56:29.156Z,4.10
2022-09-21T18:00:42.424Z,4.10
2022-09-21T18:04:46.224Z,4.90
2022-09-21T18:08:50.331Z,4.22
2022-09-21T18:13:20.259Z,3.00
2022-09-21T18:17:44.755Z,6.68
2022-09-21T18:21:52.718Z,4.70
2022-09-21T18:25:57.138Z,5.95
2022-09-21T18:30:00.173Z,5.47
2022-09-21T18:34:19.821Z,5.35
2022-09-21T18:38:28.818Z,4.78
2022-09-21T18:42:42.352Z,3.83
2022-09-21T18:46:56.011Z,4.68
2022-09-21T18:55:18.424Z,3.92
2022-09-21T18:59:21.377Z,5.55
2022-09-21T19:03:24.651Z,5.97
2022-09-21T19:11:47.859Z,4.90
2022-09-21T19:16:01.376Z,3.88
2022-09-21T19:20:24.169Z,3.30
2022-09-21T19:24:36.129Z,4.47
2022-09-21T19:29:00.935Z,3.42
2022-09-21T19:33:48.387Z,2.97
2022-09-21T19:37:49.235Z,2.95
2022-09-21T19:42:05.236Z,3.05
2022-09-21T19:46:19.894Z,4.32
2022-09-21T19:50:25.851Z,6.38
2022-09-21T19:54:46.623Z,5.10
2022-09-21T19:59:08.534Z,4.15
2022-09-21T20:03:15.677Z,3.85
2022-09-21T20:07:26.760Z,3.67
2022-09-21T20:11:38.947Z,3.78
2022-09-21T20:15:49.140Z,4.18
2022-09-21T20:19:55.927Z,3.97
2022-09-21T20:24:02.303Z,4.00
2022-09-21T20:28:06.142Z,3.90
2022-09-21T20:32:10.528Z,3.22
2022-09-21T20:36:13.074Z,2.80
2022-09-21T20:40:16.673Z,2.78
2022-09-21T20:44:19.175Z,2.53
2022-09-21T20:48:23.021Z,2.70
2022-09-21T20:52:25.699Z,2.50
2022-09-21T20:56:28.274Z,2.50
